Time;durP1;ratioP1;P1;durP2;ratioP2;P2;SDS_P1;SDS_P2;PMS_P1;PMS_P2;Temp;Humidity;BMP_temperature;BMP_pressure;BME280_temperature;BME280_humidity;BME280_pressure;Samples;Min_cycle;Max_cycle;Signal;HPM_P1;HPM_P2
2021/04/21 00:01:12;;;;;;;61.03;42.00;;;13.40;99.90;;;13.82;61.48;101626.72;5075328;28;20495;-74
2021/04/21 00:03:41;;;;;;;59.03;43.33;;;13.40;99.90;;;13.70;61.91;101620.59;5075336;28;20037;-74
2021/04/21 00:06:11;;;;;;;59.10;42.75;;;13.30;99.90;;;13.67;62.14;101623.25;5075341;28;20465;-74
2021/04/21 00:08:40;;;;;;;58.53;41.33;;;13.20;99.90;;;13.37;62.16;101577.34;5074977;28;20075;-73
2021/04/21 00:11:10;;;;;;;54.65;39.85;;;13.20;99.90;;;13.55;62.71;101617.09;5074927;28;20102;-74
2021/04/21 00:13:43;;;;;;;62.10;41.72;;;13.20;99.90;;;13.39;62.46;101574.69;5073869;28;20410;-74
2021/04/21 00:16:11;;;;;;;;;;;13.20;99.90;;;13.51;62.75;101610.03;5075596;28;20064;-74
2021/04/21 00:18:43;;;;;;;59.00;42.05;;;13.20;99.90;;;13.62;62.41;101625.06;5090563;28;19977;-74
2021/04/21 00:21:15;;;;;;;59.33;41.60;;;13.20;99.90;;;13.58;62.29;101626.84;5074704;28;20049;-74
2021/04/21 00:23:43;;;;;;;58.50;41.22;;;13.20;99.90;;;13.63;62.01;101627.69;5075019;28;20532;-74
2021/04/21 00:26:20;;;;;;;59.80;40.78;;;13.20;99.90;;;13.58;61.12;101621.53;5074579;28;20090;-73
2021/04/21 00:28:51;;;;;;;55.28;38.75;;;13.20;99.90;;;13.63;60.91;101624.19;5074689;28;20056;-74
2021/04/21 00:31:24;;;;;;;53.30;37.75;;;13.20;99.90;;;13.66;60.42;101624.16;5074900;28;20102;-74
2021/04/21 00:33:55;;;;;;;53.03;38.90;;;13.30;99.90;;;12.99;60.77;101523.44;5074829;28;20049;-74
2021/04/21 00:36:26;;;;;;;53.85;37.42;;;13.20;99.90;;;13.49;60.41;101606.50;5075061;28;20047;-73
2021/04/21 00:38:54;;;;;;;;;;;13.20;99.90;;;13.00;60.62;101533.19;5075272;28;20483;-74
2021/04/21 00:41:33;;;;;;;56.72;37.78;;;13.10;99.90;;;13.43;60.84;101613.63;5074393;28;19950;-73
2021/04/21 00:44:12;;;;;;;58.50;39.50;;;13.10;99.90;;;13.38;60.77;101608.34;5074364;28;20450;-74
2021/04/21 00:46:44;;;;;;;54.97;38.08;;;13.10;99.90;;;13.42;61.03;101609.19;5074597;28;20059;-73
2021/04/21 00:49:17;;;;;;;54.10;37.83;;;13.10;99.90;;;13.49;60.39;101621.59;5073197;28;20044;-74
2021/04/21 00:51:53;;;;;;;46.75;32.80;;;13.10;99.90;;;13.41;61.98;101613.63;5090040;28;20053;-73
2021/04/21 00:54:33;;;;;;;40.58;30.90;;;13.10;99.90;;;13.38;63.13;101616.31;5090153;28;20048;-73
2021/04/21 00:57:13;;;;;;;36.88;28.85;;;13.00;99.90;;;13.34;63.68;101603.91;5074371;28;20044;-73
2021/04/21 00:59:59;;;;;;;32.53;27.13;;;13.00;99.90;;;13.16;63.93;101611.94;5074319;28;20051;-74
2021/04/21 01:02:35;;;;;;;23.38;20.50;;;12.80;99.90;;;12.83;63.58;101605.81;5072807;28;20506;-74
2021/04/21 01:05:11;;;;;;;24.60;21.08;;;12.50;99.90;;;12.66;63.34;101614.69;5072850;28;20060;-74
2021/04/21 01:07:47;;;;;;;23.17;20.33;;;12.40;99.90;;;12.53;63.91;101607.63;5089750;28;20052;-74
2021/04/21 01:10:16;;;;;;;32.55;25.60;;;12.20;99.90;;;12.39;64.53;101598.75;5088746;28;20121;-73
2021/04/21 01:12:54;;;;;;;36.45;26.70;;;12.10;99.90;;;12.45;64.86;101608.50;5072638;28;20053;-74
2021/04/21 01:15:28;;;;;;;25.95;20.77;;;12.10;99.90;;;12.35;65.74;101582.88;5089626;28;20487;-74
2021/04/21 01:17:57;;;;;;;26.45;20.60;;;12.10;99.90;;;12.52;66.45;101610.28;5073841;28;20388;-74
2021/04/21 01:20:41;;;;;;;47.20;32.67;;;12.10;99.90;;;12.46;64.62;101571.38;5072451;28;20113;-73
2021/04/21 01:23:34;;;;;;;45.15;31.92;;;12.20;99.90;;;12.60;64.12;101605.84;5073833;28;20053;-73
2021/04/21 01:26:39;;;;;;;47.35;34.53;;;12.20;99.90;;;12.58;65.06;101612.94;5073500;28;20052;-74
2021/04/21 01:29:11;;;;;;;36.60;27.42;;;12.20;99.90;;;12.47;65.68;101599.66;5073992;28;20056;-74
2021/04/21 01:31:39;;;;;;;28.08;22.85;;;12.10;99.90;;;12.42;66.00;101609.41;5073437;28;20556;-73
2021/04/21 01:34:10;;;;;;;28.92;23.60;;;12.10;99.90;;;12.40;66.48;101610.28;5073335;28;20198;-73
2021/04/21 01:36:38;;;;;;;;;;;12.00;99.90;;;12.28;67.25;101605.84;5073978;28;20473;-73
2021/04/21 01:39:07;;;;;;;35.63;26.25;;;12.00;99.90;;;12.22;67.94;101600.53;5073361;28;19920;-73
2021/04/21 01:41:39;;;;;;;47.20;34.85;;;11.90;99.90;;;12.23;68.34;101606.75;5073436;28;20048;-73
2021/04/21 01:44:13;;;;;;;45.72;33.63;;;11.80;99.90;;;12.23;68.60;101607.59;5073435;28;20067;-73
2021/04/21 01:46:44;;;;;;;58.83;40.05;;;11.80;99.90;;;12.23;68.99;101606.75;5088945;28;20055;-73
2021/04/21 01:49:52;;;;;;;64.55;42.97;;;11.80;99.90;;;12.33;69.46;101611.16;5073417;28;20049;-74
2021/04/21 01:53:00;;;;;;;66.25;46.20;;;11.90;99.90;;;12.30;68.92;101616.44;5073317;28;20098;-74
2021/04/21 01:56:06;;;;;;;69.22;46.80;;;12.00;99.90;;;12.18;69.23;101576.66;5044641;28;20491;-73
2021/04/21 01:59:02;;;;;;;69.10;45.92;;;11.90;99.90;;;12.33;68.98;101605.88;5053142;28;20060;-73
2021/04/21 02:01:44;;;;;;;70.07;46.95;;;11.90;99.90;;;12.10;68.93;101594.34;5073120;28;20049;-74
2021/04/21 02:04:29;;;;;;;69.93;47.28;;;11.80;99.90;;;12.16;69.42;101604.94;5071553;28;20079;-73
2021/04/21 02:07:04;;;;;;;67.13;46.70;;;11.80;99.90;;;11.79;69.24;101535.97;5073364;28;20083;-74
2021/04/21 02:09:56;;;;;;;69.32;47.35;;;11.80;99.90;;;12.17;69.87;101612.94;5071772;28;20048;-73
2021/04/21 02:12:52;;;;;;;70.78;48.03;;;11.70;99.90;;;12.03;70.17;101609.38;5073025;28;20036;-73
2021/04/21 02:15:35;;;;;;;67.07;47.08;;;11.60;99.90;;;11.96;70.32;101606.69;5072940;28;20399;-73
2021/04/21 02:18:13;;;;;;;62.67;44.55;;;11.60;99.90;;;11.30;70.33;101510.25;5072909;28;20044;-73
2021/04/21 02:20:48;;;;;;;67.95;46.00;;;11.50;99.90;;;12.10;70.01;101616.44;5072693;28;20138;-73
2021/04/21 02:23:28;;;;;;;68.30;45.75;;;11.60;99.90;;;12.10;69.69;101607.63;5072667;28;20045;-73
2021/04/21 02:26:12;;;;;;;71.97;43.90;;;11.70;99.90;;;12.09;69.52;101640.31;5072837;28;20056;-73
2021/04/21 02:28:52;;;;;;;61.47;42.17;;;11.70;99.90;;;12.10;68.82;101615.56;5072567;28;20407;-73
2021/04/21 02:31:30;;;;;;;60.72;42.83;;;11.70;99.90;;;12.15;68.67;101614.69;5072834;28;20053;-73
2021/04/21 02:34:11;;;;;;;66.20;44.17;;;11.80;99.90;;;12.13;68.22;101611.16;5072550;28;20079;-73
2021/04/21 02:36:45;;;;;;;61.65;44.03;;;11.80;99.90;;;12.10;67.62;101611.13;5088211;28;20073;-73
2021/04/21 02:39:25;;;;;;;61.15;43.80;;;11.70;99.90;;;12.17;67.55;101606.72;5072935;28;20114;-73
2021/04/21 02:42:03;;;;;;;56.13;39.38;;;11.80;99.90;;;12.19;68.66;101612.91;5072759;28;20048;-73
2021/04/21 02:44:45;;;;;;;56.25;40.67;;;11.80;99.90;;;12.16;68.55;101615.56;5072683;28;20105;-73
2021/04/21 02:47:22;;;;;;;60.65;43.30;;;11.80;99.90;;;12.13;67.58;101632.38;5072396;28;20045;-73
2021/04/21 02:50:03;;;;;;;56.47;41.40;;;11.80;99.90;;;12.00;67.15;101589.91;5072628;28;20086;-74
2021/04/21 02:52:39;;;;;;;;;;;11.70;99.90;;;11.97;68.01;101611.09;5073003;28;20033;-74
2021/04/21 02:55:23;;;;;;;35.00;26.98;;;11.70;99.90;;;11.86;68.23;101611.09;5072632;28;19927;-73
2021/04/21 02:58:04;;;;;;;53.55;38.40;;;11.60;99.90;;;11.46;67.78;101524.38;5072469;28;20044;-73
2021/04/21 03:00:41;;;;;;;53.58;38.78;;;11.60;99.90;;;12.07;67.56;101626.16;5072854;28;20044;-74
2021/04/21 03:03:30;;;;;;;58.28;40.33;;;11.70;99.90;;;12.04;67.84;101611.13;5072540;28;20072;-73
2021/04/21 03:06:04;;;;;;;60.67;42.20;;;11.80;99.90;;;12.13;67.54;101623.50;5072225;28;20053;-73
2021/04/21 03:08:39;;;;;;;59.03;41.28;;;11.90;99.90;;;12.09;67.35;101608.47;5072500;28;20052;-73
2021/04/21 03:11:10;;;;;;;59.15;39.70;;;11.80;99.90;;;11.43;67.44;101498.78;5088054;28;20048;-74
2021/04/21 03:13:47;;;;;;;47.80;34.50;;;11.80;99.90;;;12.01;68.22;101615.53;5072589;28;20059;-74
2021/04/21 03:16:19;;;;;;;41.58;31.58;;;11.70;99.90;;;11.91;68.73;101614.63;5072124;28;20101;-74
2021/04/21 03:18:49;;;;;;;37.95;29.25;;;11.60;99.90;;;11.86;69.41;101612.84;5072087;28;20495;-74
2021/04/21 03:21:24;;;;;;;30.98;25.52;;;11.50;99.90;;;11.80;69.72;101613.72;5072165;28;20036;-73
2021/04/21 03:24:01;;;;;;;31.75;25.42;;;11.50;99.90;;;11.82;69.71;101619.03;5087917;28;20048;-74
2021/04/21 03:26:29;;;;;;;53.20;37.28;;;11.50;99.90;;;11.72;69.06;101624.31;5071014;28;20475;-73
2021/04/21 03:29:01;;;;;;;49.83;35.08;;;11.50;99.90;;;11.89;68.02;101624.34;5071950;28;20048;-74
2021/04/21 03:31:34;;;;;;;49.47;33.78;;;11.50;99.90;;;11.85;67.28;101609.31;5072317;28;20097;-74
2021/04/21 03:34:06;;;;;;;47.80;32.33;;;11.50;99.90;;;11.93;66.10;101615.53;5074091;28;20044;-73
2021/04/21 03:36:36;;;;;;;49.17;33.88;;;11.50;99.90;;;11.88;66.09;101608.44;5075951;28;20043;-74
2021/04/21 03:39:06;;;;;;;47.40;32.53;;;11.50;99.90;;;11.46;65.84;101534.97;5074699;28;20048;-73
2021/04/21 03:41:36;;;;;;;47.75;32.80;;;11.60;99.90;;;11.86;65.71;101610.22;5075777;28;20036;-74
2021/04/21 03:44:05;;;;;;;52.47;32.92;;;11.50;99.90;;;11.77;65.93;101588.09;5075478;28;20113;-73
2021/04/21 03:46:35;;;;;;;48.38;30.67;;;11.50;99.90;;;11.92;65.52;101605.81;5074388;28;20110;-74
2021/04/21 03:49:07;;;;;;;46.28;29.95;;;11.50;99.90;;;11.89;64.79;101610.19;5075460;28;20052;-73
2021/04/21 03:51:39;;;;;;;42.25;30.05;;;11.50;99.90;;;11.87;65.56;101618.16;5075355;28;20066;-73
2021/04/21 03:54:07;;;;;;;44.15;31.05;;;11.50;99.90;;;11.80;65.56;101605.78;5075599;28;20052;-73
2021/04/21 03:56:37;;;;;;;43.08;29.58;;;11.50;99.90;;;11.77;65.32;101611.94;5075467;28;20079;-73
2021/04/21 03:59:05;;;;;;;43.75;30.08;;;11.40;99.90;;;11.39;64.90;101530.56;5075316;28;20447;-73
2021/04/21 04:01:38;;;;;;;47.40;31.50;;;11.40;99.90;;;11.83;64.67;101612.88;5075440;28;20453;-73
2021/04/21 04:04:09;;;;;;;47.35;30.88;;;11.50;99.90;;;11.79;64.39;101609.28;5074873;28;20037;-72
2021/04/21 04:06:43;;;;;;;52.85;31.20;;;11.50;99.90;;;11.66;64.53;101584.53;5075321;28;20048;-73
2021/04/21 04:09:12;;;;;;;46.88;30.25;;;11.50;99.90;;;11.82;64.46;101608.44;5075288;28;20059;-82
2021/04/21 04:11:45;;;;;;;43.20;28.90;;;11.50;99.90;;;11.83;64.48;101613.72;5075174;28;20510;-74
2021/04/21 04:14:19;;;;;;;47.38;29.83;;;11.50;99.90;;;11.86;64.13;101616.41;5075182;28;20570;-75
2021/04/21 04:16:53;;;;;;;45.00;31.13;;;11.50;99.90;;;11.76;63.93;101625.22;5074920;28;20076;-76
2021/04/21 04:19:24;;;;;;;40.70;29.08;;;11.50;99.90;;;11.77;63.81;101617.25;5075060;28;20442;-76
2021/04/21 04:22:05;;;;;;;46.42;31.50;;;11.40;99.90;;;11.78;63.68;101616.38;5075309;28;20049;-77
2021/04/21 04:24:42;;;;;;;47.22;31.35;;;11.50;99.90;;;11.86;63.62;101621.72;5073676;28;20051;-78
2021/04/21 04:27:16;;;;;;;50.28;32.55;;;11.50;99.90;;;11.89;63.52;101621.69;5074756;28;20105;-74
2021/04/21 04:29:45;;;;;;;52.72;34.03;;;11.50;99.90;;;11.98;63.29;101634.09;5075003;28;20048;-74
2021/04/21 04:32:16;;;;;;;52.30;33.33;;;11.60;99.90;;;11.97;63.20;101632.31;5073529;28;20122;-74
2021/04/21 04:34:46;;;;;;;42.38;30.08;;;11.60;99.90;;;11.77;63.66;101601.34;5074870;28;20049;-71
2021/04/21 04:37:15;;;;;;;48.88;32.80;;;11.60;99.90;;;11.78;63.67;101605.78;5074504;28;20407;-74
2021/04/21 04:39:44;;;;;;;52.55;34.60;;;11.60;99.90;;;11.92;64.02;101621.72;5074369;28;20125;-73
2021/04/21 04:42:12;;;;;;;53.97;35.67;;;11.60;99.90;;;11.99;64.52;101638.50;5074916;28;20352;-75
2021/04/21 04:44:46;;;;;;;49.97;34.97;;;11.60;99.90;;;12.05;64.95;101636.75;5074544;28;20106;-77
2021/04/21 04:47:21;;;;;;;53.20;35.78;;;11.60;99.90;;;11.99;65.66;101628.78;5072985;28;20051;-74
2021/04/21 04:49:56;;;;;;;53.40;35.65;;;11.60;99.90;;;11.93;65.70;101642.03;5074801;28;20043;-74
2021/04/21 04:52:26;;;;;;;51.10;35.58;;;11.60;99.90;;;11.84;65.65;101654.38;5074481;28;20102;-73
2021/04/21 04:54:54;;;;;;;51.13;35.35;;;11.50;99.90;;;11.76;65.57;101644.66;5074453;28;20044;-73
2021/04/21 04:57:23;;;;;;;48.22;34.22;;;11.40;99.90;;;11.57;65.29;101615.41;5074352;28;20123;-73
2021/04/21 04:59:51;;;;;;;48.70;32.65;;;11.40;99.90;;;11.69;65.20;101657.88;5072923;28;20625;-73
2021/04/21 05:02:21;;;;;;;46.85;32.55;;;11.30;99.90;;;11.65;64.99;101648.13;5074265;28;20110;-73
2021/04/21 05:04:56;;;;;;;45.20;31.67;;;11.40;99.90;;;11.74;65.09;101658.78;5074171;28;20057;-74
2021/04/21 05:07:32;;;;;;;49.38;32.65;;;11.30;99.90;;;11.67;65.12;101652.56;5074213;28;20051;-73
2021/04/21 05:10:05;;;;;;;48.65;33.13;;;11.30;99.90;;;11.72;64.83;101663.19;5074113;28;20044;-73
2021/04/21 05:12:39;;;;;;;53.25;33.72;;;11.30;99.90;;;11.43;65.31;101633.91;5072782;28;20044;-73
2021/04/21 05:15:55;;;;;;;54.58;35.28;;;11.20;99.90;;;11.59;65.93;101654.25;5074346;28;20052;-74
2021/04/21 05:19:06;;;;;;;50.65;35.13;;;11.20;99.90;;;11.65;66.09;101664.00;5026680;28;20056;-75
2021/04/21 05:22:48;;;;;;;57.20;36.38;;;11.20;99.90;;;11.82;65.45;101669.41;5073898;28;20102;-74
2021/04/21 05:26:28;;;;;;;56.05;35.88;;;11.30;99.90;;;11.85;66.08;101678.25;4992047;28;20046;-74
2021/04/21 05:29:31;;;;;;;59.95;37.20;;;11.40;99.90;;;11.83;66.49;101673.84;4923802;28;20056;-74
2021/04/21 05:32:46;;;;;;;52.70;36.30;;;11.50;99.90;;;11.99;65.34;101667.69;5011674;28;20054;-73
2021/04/21 05:36:19;;;;;;;60.78;36.20;;;11.60;99.90;;;11.94;65.10;101677.41;5072274;28;20458;-74
2021/04/21 05:39:43;;;;;;;57.30;36.42;;;11.60;99.90;;;12.08;65.60;101681.84;5073399;28;20379;-74
2021/04/21 05:43:12;;;;;;;59.42;36.00;;;11.70;99.90;;;12.14;65.44;101686.28;5073440;28;20061;-74
2021/04/21 05:46:35;;;;;;;54.67;36.22;;;11.80;99.90;;;12.26;65.85;101696.91;5073087;28;20114;-77
2021/04/21 05:49:57;;;;;;;55.38;34.88;;;11.90;99.90;;;12.42;65.07;101672.19;5073467;28;20084;-74
2021/04/21 05:53:11;;;;;;;59.22;36.60;;;12.10;99.90;;;12.73;64.04;101700.50;5071339;28;20090;-74
2021/04/21 05:56:40;;;;;;;56.20;37.10;;;12.30;99.90;;;12.95;63.66;101696.09;5070527;28;20052;-74
2021/04/21 05:59:55;;;;;;;53.40;34.97;;;12.50;99.90;;;13.06;62.79;101697.88;5073398;28;20044;-74
2021/04/21 06:02:26;;;;;;;52.15;34.97;;;12.70;99.90;;;13.26;62.42;101704.03;5073160;28;20045;-74
2021/04/21 06:05:06;;;;;;;56.72;33.92;;;12.90;99.90;;;13.33;61.76;101700.47;5071393;28;20056;-74
2021/04/21 06:07:33;;;;;;;60.78;36.65;;;13.00;99.90;;;13.32;61.87;101698.69;5072817;28;20056;-74
2021/04/21 06:10:20;;;;;;;57.22;35.65;;;13.00;99.90;;;13.33;62.40;101703.16;5072910;28;20049;-74
2021/04/21 06:12:51;;;;;;;59.95;35.97;;;13.00;99.90;;;13.43;62.24;101710.19;5072922;28;20040;-74
2021/04/21 06:15:23;;;;;;;;;;;13.10;99.90;;;13.64;61.69;101708.34;5073333;28;20402;-74
2021/04/21 06:17:59;;;;;;;60.92;39.13;;;13.30;99.90;;;13.65;61.68;101697.72;5072608;28;20323;-75
2021/04/21 06:20:33;;;;;;;66.10;42.45;;;13.50;99.90;;;13.94;62.38;101721.50;5072587;28;20057;-75
2021/04/21 06:23:10;;;;;;;69.13;44.72;;;13.60;99.90;;;13.62;63.73;101713.69;5071400;28;20048;-74
2021/04/21 06:25:40;;;;;;;70.88;47.63;;;13.50;99.90;;;13.79;64.12;101716.28;5071565;28;20392;-75
2021/04/21 06:28:15;;;;;;;69.30;46.20;;;13.60;99.90;;;13.83;64.16;101712.72;5071089;28;20044;-75
2021/04/21 06:30:45;;;;;;;69.03;44.28;;;13.60;99.90;;;13.93;63.72;101725.97;5072645;28;20045;-74
2021/04/21 06:33:12;;;;;;;68.85;43.78;;;13.70;99.90;;;13.98;63.61;101731.25;5072562;28;20048;-74
2021/04/21 06:35:42;;;;;;;67.63;45.50;;;13.70;99.90;;;14.00;63.90;101733.03;5072960;28;20040;-74
2021/04/21 06:38:10;;;;;;;66.10;45.55;;;13.70;99.90;;;14.04;64.41;101728.56;5072664;28;20052;-74
2021/04/21 06:40:41;;;;;;;63.47;44.22;;;13.80;99.90;;;14.13;65.02;101739.19;5072521;28;20036;-75
2021/04/21 06:43:10;;;;;;;67.25;46.63;;;13.90;99.90;;;14.22;64.87;101741.78;5072253;28;20133;-76
2021/04/21 06:45:38;;;;;;;65.70;47.30;;;13.90;99.90;;;14.30;64.79;101738.22;5072581;28;20045;-74
2021/04/21 06:48:09;;;;;;;68.13;47.88;;;14.00;99.90;;;14.33;65.31;101730.22;5072573;28;20376;-74
2021/04/21 06:50:41;;;;;;;67.47;47.70;;;14.10;99.90;;;14.40;64.90;101739.94;5072246;28;20078;-75
2021/04/21 06:53:11;;;;;;;67.57;45.60;;;14.20;99.90;;;13.87;65.33;101640.00;5072741;28;20048;-74
2021/04/21 06:55:39;;;;;;;65.28;43.08;;;14.20;99.90;;;14.58;64.77;101743.38;5072653;28;20111;-74
2021/04/21 06:58:19;;;;;;;60.85;41.85;;;14.30;99.90;;;14.60;64.68;101741.56;5072442;28;20053;-76
2021/04/21 07:00:46;;;;;;;63.72;42.38;;;14.40;99.90;;;14.56;64.38;101754.03;5071159;28;20055;-75
2021/04/21 07:03:23;;;;;;;61.60;41.13;;;14.40;99.90;;;14.65;64.05;101750.44;5072833;28;20140;-76
2021/04/21 07:05:50;;;;;;;58.97;40.42;;;14.40;99.90;;;14.55;64.13;101748.72;5072379;28;20113;-75
2021/04/21 07:08:20;;;;;;;57.20;39.53;;;14.40;99.90;;;14.56;64.96;101755.81;5071612;28;20509;-74
2021/04/21 07:10:50;;;;;;;54.45;39.42;;;14.40;99.90;;;14.43;65.32;101742.59;5076465;28;20495;-75
2021/04/21 07:13:21;;;;;;;57.90;40.50;;;14.30;99.90;;;14.57;65.43;101731.84;5076317;28;20045;-75
2021/04/21 07:15:49;;;;;;;;;;;14.50;99.90;;;14.91;64.81;101749.34;5075295;28;20044;-74
2021/04/21 07:18:19;;;;;;;55.65;40.30;;;14.70;99.90;;;15.08;64.44;101742.09;5076052;28;20018;-75
2021/04/21 07:20:48;;;;;;;56.88;38.85;;;14.90;99.90;;;15.20;63.84;101752.63;5075963;28;20071;-75
2021/04/21 07:23:21;;;;;;;56.22;39.85;;;15.00;99.90;;;15.19;63.38;101745.53;5076252;28;20052;-74
2021/04/21 07:25:49;;;;;;;54.90;39.20;;;15.00;99.90;;;15.28;63.33;101747.22;5076109;28;20044;-74
2021/04/21 07:28:20;;;;;;;56.13;39.40;;;15.10;99.90;;;15.32;63.03;101754.31;5075979;28;20068;-75
2021/04/21 07:30:49;;;;;;;51.78;37.33;;;15.20;99.90;;;15.36;63.14;101756.03;5075793;28;20067;-75
2021/04/21 07:33:38;;;;;;;54.25;38.85;;;15.20;99.90;;;15.41;62.41;101767.53;5075608;28;20048;-71
2021/04/21 07:36:11;;;;;;;55.65;38.83;;;15.20;99.90;;;15.23;62.76;101763.25;5075863;28;20055;-73
2021/04/21 07:38:42;;;;;;;55.63;38.42;;;15.10;99.90;;;15.19;63.23;101771.31;5075543;28;20090;-79
2021/04/21 07:41:12;;;;;;;64.30;43.30;;;15.00;99.90;;;15.17;63.59;101774.00;5074337;28;20407;-71
2021/04/21 07:43:43;;;;;;;60.45;41.35;;;15.00;99.90;;;15.22;63.44;101777.50;5075631;28;20080;-71
2021/04/21 07:46:15;;;;;;;70.35;45.38;;;15.10;99.90;;;15.42;63.82;101782.69;5075334;28;20448;-65
2021/04/21 07:48:47;;;;;;;68.47;41.97;;;15.20;99.90;;;15.37;62.15;101764.03;5075522;28;20048;-66
2021/04/21 07:51:43;;;;;;;64.65;43.42;;;15.40;99.90;;;15.67;62.36;101791.31;5075902;28;20110;-67
2021/04/21 07:54:29;;;;;;;70.00;44.25;;;15.40;99.90;;;15.73;61.87;101769.91;5075746;28;20048;-66
2021/04/21 07:57:04;;;;;;;65.13;41.22;;;15.60;99.90;;;16.03;61.47;101801.56;5075303;28;20056;-68
2021/04/21 07:59:35;;;;;;;63.55;42.15;;;15.80;99.90;;;15.89;60.70;101806.22;5075374;28;20063;-66
2021/04/21 08:02:19;;;;;;;59.88;39.20;;;15.70;99.90;;;15.90;60.73;101805.28;5075258;28;20036;-66
2021/04/21 08:04:55;;;;;;;61.67;38.72;;;15.70;99.90;;;15.94;60.58;101812.38;5075080;28;20127;-66
2021/04/21 08:07:39;;;;;;;61.58;37.85;;;15.70;99.90;;;15.72;60.54;101811.72;5075433;28;20395;-66
2021/04/21 08:10:24;;;;;;;70.97;40.45;;;15.50;99.90;;;15.72;61.15;101805.47;5075273;28;20052;-66
2021/04/21 08:12:52;;;;;;;108.78;73.57;;;15.50;99.90;;;15.81;61.18;101814.28;5075237;28;20121;-66
2021/04/21 08:15:28;;;;;;;59.13;37.47;;;15.60;99.90;;;15.92;60.94;101815.06;5075024;28;20080;-64
2021/04/21 08:17:58;;;;;;;62.75;40.70;;;15.70;99.90;;;15.97;61.20;101818.53;5073689;28;20056;-64
2021/04/21 08:20:32;;;;;;;58.55;35.88;;;15.70;99.90;;;16.01;60.22;101822.94;5074789;28;20052;-64
2021/04/21 08:23:04;;;;;;;55.30;36.35;;;15.80;99.90;;;15.43;59.20;101715.13;5074906;28;20458;-64
2021/04/21 08:25:32;;;;;;;59.42;36.25;;;15.90;99.90;;;15.96;59.41;101829.25;5074957;28;20054;-65
2021/04/21 08:28:01;;;;;;;53.60;34.13;;;15.80;99.90;;;15.78;59.80;101792.06;5074854;28;20079;-65
2021/04/21 08:30:31;;;;;;;50.22;32.85;;;15.80;99.90;;;16.04;60.07;101835.38;5074564;28;20078;-65
2021/04/21 08:32:59;;;;;;;51.58;34.13;;;15.80;99.90;;;15.92;59.41;101838.19;5074877;28;20048;-64
2021/04/21 08:35:26;;;;;;;51.20;32.50;;;15.80;99.90;;;15.99;59.59;101827.41;5075028;28;20056;-64
2021/04/21 08:37:54;;;;;;;45.25;30.48;;;15.80;99.90;;;15.79;59.77;101823.22;5074700;28;20052;-65
2021/04/21 08:40:24;;;;;;;45.97;31.17;;;15.80;99.90;;;15.63;60.49;101851.81;5074565;28;20063;-65
2021/04/21 08:42:56;;;;;;;45.50;30.42;;;15.50;99.90;;;15.45;60.88;101843.97;5074418;28;20045;-65
2021/04/21 08:45:23;;;;;;;45.00;29.98;;;15.30;99.90;;;15.37;61.06;101845.78;5074552;28;20048;-65
2021/04/21 08:47:55;;;;;;;42.55;29.83;;;15.10;99.90;;;15.04;61.25;101817.63;5074384;28;20091;-65
2021/04/21 08:50:25;;;;;;;42.42;29.38;;;15.10;99.90;;;15.19;61.63;101867.28;5074451;28;20048;-65
2021/04/21 08:52:56;;;;;;;41.03;28.52;;;15.00;99.90;;;15.00;61.34;101853.16;5074433;28;20044;-65
2021/04/21 08:55:28;;;;;;;41.75;28.73;;;14.90;99.90;;;15.04;61.84;101851.41;5074528;28;20048;-65
2021/04/21 08:57:57;;;;;;;45.83;29.13;;;14.80;99.90;;;14.79;62.41;101861.31;5074607;28;20040;-65
2021/04/21 09:00:24;;;;;;;50.65;31.25;;;14.70;99.90;;;14.70;62.92;101856.03;5072765;28;20049;-64
2021/04/21 09:02:53;;;;;;;54.63;33.78;;;14.60;99.90;;;14.34;63.29;101856.22;5074491;28;20040;-64
2021/04/21 09:05:21;;;;;;;54.30;34.42;;;14.30;99.90;;;14.24;64.92;101855.34;5073776;28;20041;-64
2021/04/21 09:07:49;;;;;;;58.78;35.95;;;14.10;99.90;;;14.18;64.84;101852.69;5074115;28;20446;-64
2021/04/21 09:10:18;;;;;;;60.63;38.17;;;14.00;99.90;;;14.22;65.21;101861.53;5074129;28;20043;-64
2021/04/21 09:12:47;;;;;;;60.77;39.33;;;14.00;99.90;;;14.09;65.80;101859.81;5074265;28;20090;-66
2021/04/21 09:15:17;;;;;;;69.80;41.83;;;13.90;99.90;;;13.99;65.86;101842.09;5073992;28;20056;-66
2021/04/21 09:17:47;;;;;;;65.60;39.35;;;14.00;99.90;;;14.18;66.33;101862.44;5073787;28;20095;-65
2021/04/21 09:20:19;;;;;;;168.70;103.00;;;14.00;99.90;;;14.37;65.87;101865.06;5073370;28;20384;-74
2021/04/21 09:23:01;;;;;;;220.23;129.20;;;14.10;99.90;;;13.96;65.37;101767.63;5073946;28;20045;-72
2021/04/21 09:25:34;;;;;;;67.85;40.72;;;14.30;99.90;;;13.92;65.32;101763.19;5072431;28;20484;-68
2021/04/21 09:28:01;;;;;;;70.72;41.13;;;14.30;99.90;;;14.69;64.75;101875.56;5073781;28;20036;-70
2021/04/21 09:30:29;;;;;;;77.57;44.40;;;14.40;99.90;;;14.78;64.65;101878.19;5073251;28;20036;-70
2021/04/21 09:32:59;;;;;;;67.78;41.75;;;14.50;99.90;;;14.76;64.88;101879.97;5072960;28;20063;-77
2021/04/21 09:35:30;;;;;;;69.72;44.35;;;14.50;99.90;;;14.86;64.49;101879.03;5073845;28;20407;-71
2021/04/21 09:38:04;;;;;;;;;;;14.60;99.90;;;14.90;64.16;101870.13;5073988;28;20491;-73
2021/04/21 09:40:43;;;;;;;68.25;43.65;;;14.70;99.90;;;15.03;63.93;101877.16;5073381;28;19943;-79
2021/04/21 09:43:17;;;;;;;71.13;45.97;;;14.80;99.90;;;15.08;63.64;101861.09;5072334;28;20053;-77
2021/04/21 09:45:46;;;;;;;67.25;44.95;;;15.00;99.90;;;15.20;63.73;101880.59;5071915;28;20407;-80
2021/04/21 09:48:17;;;;;;;70.13;45.35;;;15.00;99.90;;;14.64;63.10;101785.94;5073366;28;20044;-84
2021/04/21 09:50:57;;;;;;;63.83;43.70;;;15.00;99.90;;;15.19;63.50;101878.78;5073005;28;20041;-70
2021/04/21 09:53:30;;;;;;;;;;;15.00;99.90;;;15.23;63.28;101861.88;5073752;28;20423;-68
2021/04/21 09:56:10;;;;;;;72.55;46.17;;;15.10;99.90;;;15.35;62.46;101885.78;5071935;28;19946;-69
2021/04/21 09:58:40;;;;;;;68.28;46.65;;;15.20;99.90;;;15.33;62.11;101878.69;5073125;28;20053;-72
2021/04/21 10:01:24;;;;;;;63.20;45.88;;;15.20;99.90;;;15.37;61.69;101877.78;5073060;28;20117;-74
2021/04/21 10:04:12;;;;;;;65.78;44.08;;;15.20;99.90;;;15.44;62.11;101886.66;5072816;28;20059;-72
2021/04/21 10:06:44;;;;;;;65.32;45.45;;;15.20;99.90;;;15.42;62.29;101880.44;5073055;28;20106;-72
2021/04/21 10:09:32;;;;;;;59.45;42.38;;;15.30;99.90;;;15.51;61.48;101872.38;5088408;28;20067;-72
2021/04/21 10:12:19;;;;;;;61.35;42.88;;;15.30;99.90;;;15.66;61.67;101881.13;5072903;28;20059;-73
2021/04/21 10:14:49;;;;;;;63.10;43.05;;;15.40;99.90;;;15.84;61.02;101880.06;5072566;28;20044;-72
2021/04/21 10:17:18;;;;;;;56.25;41.28;;;15.60;99.90;;;15.97;60.98;101881.69;5072936;28;20078;-72
2021/04/21 10:19:46;;;;;;;62.70;42.17;;;15.70;99.90;;;16.00;60.81;101882.59;5072485;28;20048;-71
2021/04/21 10:22:14;;;;;;;59.75;40.53;;;15.80;99.90;;;16.19;60.72;101886.81;5072334;28;20055;-71
2021/04/21 10:24:41;;;;;;;59.08;39.22;;;15.90;99.90;;;16.21;59.97;101887.69;5072763;28;20560;-71
2021/04/21 10:27:09;;;;;;;55.70;39.13;;;16.00;99.90;;;16.17;60.38;101879.72;5072776;28;20182;-73
2021/04/21 10:29:37;;;;;;;59.53;40.05;;;16.00;99.90;;;16.07;60.38;101856.69;5072596;28;20106;-71
2021/04/21 10:32:06;;;;;;;84.45;46.17;;;16.10;99.90;;;16.43;60.60;101884.75;5072657;28;20052;-72
2021/04/21 10:34:34;;;;;;;56.67;37.78;;;16.20;99.90;;;16.51;59.81;101885.59;5072709;28;20033;-70
2021/04/21 10:37:03;;;;;;;51.08;36.08;;;16.30;99.90;;;16.59;59.39;101900.59;5072707;28;20044;-70
2021/04/21 10:39:36;;;;;;;56.08;36.42;;;16.40;99.90;;;16.62;58.71;101897.00;5072575;28;20049;-70
2021/04/21 10:42:10;;;;;;;51.25;36.53;;;16.40;99.90;;;16.58;58.63;101898.84;5073517;28;20044;-71